Time;durP1;ratioP1;P1;durP2;ratioP2;P2;SDS_P1;SDS_P2;PMS_P1;PMS_P2;Temp;Humidity;BMP_temperature;BMP_pressure;BME280_temperature;BME280_humidity;BME280_pressure;Samples;Min_cycle;Max_cycle;Signal;HPM_P1;HPM_P2
2021/03/21 00:00:33;;;;;;;17.90;8.80;;;9.50;30.50;;;;;;5038873;28;20414;-87
2021/03/21 00:03:00;;;;;;;17.10;10.27;;;9.10;33.40;;;;;;5038850;28;20627;-87
2021/03/21 00:05:27;;;;;;;18.97;9.53;;;8.70;33.30;;;;;;5039460;28;20488;-87
2021/03/21 00:07:56;;;;;;;20.00;9.43;;;8.40;35.10;;;;;;5039951;28;20447;-87
2021/03/21 00:10:22;;;;;;;13.83;9.10;;;8.40;34.90;;;;;;5040032;28;20516;-87
2021/03/21 00:12:50;;;;;;;15.23;9.03;;;8.70;33.50;;;;;;5040115;28;20868;-88
2021/03/21 00:15:16;;;;;;;14.23;8.27;;;8.50;35.90;;;;;;5039439;28;20445;-87
2021/03/21 00:17:43;;;;;;;16.70;7.80;;;8.30;35.00;;;;;;5041091;28;20445;-87
2021/03/21 00:20:12;;;;;;;14.30;8.10;;;9.00;37.80;;;;;;5039453;28;20449;-88
2021/03/21 00:22:38;;;;;;;14.47;8.70;;;9.30;34.10;;;;;;5040208;28;20441;-88
2021/03/21 00:25:08;;;;;;;15.97;8.23;;;9.10;33.90;;;;;;5039053;28;20487;-88
2021/03/21 00:27:34;;;;;;;16.50;8.70;;;8.60;35.90;;;;;;5040210;28;20938;-88
2021/03/21 00:30:03;;;;;;;21.63;9.93;;;8.80;35.20;;;;;;5039880;28;20513;-88
2021/03/21 00:32:29;;;;;;;14.47;9.20;;;8.40;32.60;;;;;;5040016;28;20449;-88
2021/03/21 00:34:56;;;;;;;15.30;8.50;;;8.60;35.20;;;;;;5040201;28;20960;-88
2021/03/21 00:37:22;;;;;;;14.40;8.50;;;8.90;33.80;;;;;;5040577;28;20438;-88
2021/03/21 00:39:49;;;;;;;15.63;8.63;;;9.30;37.10;;;;;;5040022;28;20896;-88
2021/03/21 00:42:15;;;;;;;16.30;8.53;;;9.90;34.10;;;;;;5039790;28;20823;-88
2021/03/21 00:44:42;;;;;;;12.73;7.60;;;10.00;33.00;;;;;;5039326;28;20438;-88
2021/03/21 00:47:09;;;;;;;16.60;9.77;;;10.10;31.50;;;;;;5041907;28;20543;-89
2021/03/21 00:49:36;;;;;;;14.30;7.70;;;9.40;30.30;;;;;;5039034;28;20481;-88
2021/03/21 00:52:03;;;;;;;13.33;8.43;;;8.90;33.40;;;;;;5039690;28;20445;-87
2021/03/21 00:54:29;;;;;;;13.97;8.80;;;8.60;35.20;;;;;;5039335;28;20450;-88
2021/03/21 00:56:56;;;;;;;16.23;9.07;;;9.20;35.70;;;;;;5039637;28;20453;-88
2021/03/21 00:59:22;;;;;;;15.40;8.30;;;9.30;33.30;;;;;;5038682;28;20488;-87
2021/03/21 01:01:49;;;;;;;12.53;8.37;;;9.50;36.00;;;;;;5041285;28;20997;-87
2021/03/21 01:04:16;;;;;;;14.60;8.97;;;9.90;34.80;;;;;;5038866;28;20487;-87
2021/03/21 01:06:43;;;;;;;14.13;8.93;;;9.80;33.40;;;;;;5040977;28;20520;-87
2021/03/21 01:09:13;;;;;;;12.40;8.20;;;9.10;32.00;;;;;;5042321;28;20453;-87
2021/03/21 01:11:40;;;;;;;14.00;7.90;;;8.50;35.10;;;;;;5043705;28;20421;-87
2021/03/21 01:14:08;;;;;;;19.60;8.27;;;8.80;37.30;;;;;;5043061;28;20444;-88
2021/03/21 01:16:38;;;;;;;11.63;8.37;;;9.00;37.60;;;;;;5043444;28;20491;-88
2021/03/21 01:19:06;;;;;;;14.70;8.30;;;9.50;35.40;;;;;;5047021;28;20518;-88
2021/03/21 01:21:35;;;;;;;11.90;7.70;;;10.00;33.80;;;;;;5039689;28;20448;-87
2021/03/21 01:24:02;;;;;;;12.37;7.57;;;10.00;33.70;;;;;;5038354;28;20488;-87
2021/03/21 01:26:29;;;;;;;11.83;8.10;;;9.60;36.10;;;;;;5038301;28;20516;-87
2021/03/21 01:28:57;;;;;;;11.27;7.03;;;10.20;33.60;;;;;;5040171;28;20476;-87
2021/03/21 01:31:24;;;;;;;13.63;7.23;;;10.30;35.30;;;;;;5038967;28;20453;-87
2021/03/21 01:33:51;;;;;;;13.50;8.67;;;10.30;34.70;;;;;;5039530;28;20449;-87
2021/03/21 01:36:24;;;;;;;14.63;8.73;;;10.00;29.80;;;;;;5038892;28;20476;-88
2021/03/21 01:38:53;;;;;;;13.43;7.93;;;9.20;32.70;;;;;;5038762;28;20504;-87
2021/03/21 01:41:23;;;;;;;11.77;8.10;;;9.00;31.60;;;;;;5038310;28;20943;-87
2021/03/21 01:43:50;;;;;;;14.83;8.17;;;8.80;32.80;;;;;;5039308;28;20437;-87
2021/03/21 01:46:21;;;;;;;13.80;8.60;;;8.80;32.80;;;;;;5037406;28;20473;-87
2021/03/21 01:48:52;;;;;;;13.17;7.87;;;8.80;33.00;;;;;;5035566;28;20461;-87
2021/03/21 01:51:22;;;;;;;10.93;7.50;;;8.90;32.50;;;;;;5035578;28;20463;-87
2021/03/21 01:53:53;;;;;;;22.20;8.57;;;9.00;33.50;;;;;;5035495;28;20488;-87
2021/03/21 01:56:20;;;;;;;14.37;8.30;;;8.90;35.80;;;;;;5035938;28;20425;-87
2021/03/21 01:58:52;;;;;;;9.60;7.43;;;8.50;35.10;;;;;;5035078;28;20503;-87
2021/03/21 02:01:23;;;;;;;11.23;7.80;;;8.60;35.20;;;;;;5035632;28;20786;-87
2021/03/21 02:03:50;;;;;;;12.07;7.97;;;8.20;35.00;;;;;;5035065;28;20532;-87
2021/03/21 02:06:36;;;;;;;12.80;8.33;;;7.90;34.50;;;;;;5035224;28;20492;-87
2021/03/21 02:09:11;;;;;;;17.30;7.77;;;8.10;34.80;;;;;;5035244;28;20454;-87
2021/03/21 02:11:50;;;;;;;11.20;7.73;;;8.40;35.10;;;;;;5035521;28;20459;-87
2021/03/21 02:14:21;;;;;;;12.43;7.23;;;8.10;34.10;;;;;;5035626;28;20440;-88
2021/03/21 02:16:53;;;;;;;12.83;7.10;;;8.60;36.60;;;;;;5035513;28;20458;-87
2021/03/21 02:19:44;;;;;;;12.87;7.43;;;8.80;37.70;;;;;;5035300;28;20480;-87
2021/03/21 02:22:16;;;;;;;10.27;6.97;;;8.00;34.00;;;;;;5035047;28;20562;-87
2021/03/21 02:25:15;;;;;;;11.30;7.17;;;9.10;37.40;;;;;;5035324;28;20422;-87
2021/03/21 02:28:06;;;;;;;12.47;7.23;;;9.50;32.70;;;;;;5002659;28;20472;-87
2021/03/21 02:30:38;;;;;;;11.33;7.27;;;9.10;34.30;;;;;;5035591;28;20487;-87
2021/03/21 02:33:11;;;;;;;10.37;6.90;;;9.10;32.40;;;;;;5034875;28;20448;-87
2021/03/21 02:35:46;;;;;;;10.03;7.17;;;9.40;35.90;;;;;;5034904;28;20477;-87
2021/03/21 02:38:21;;;;;;;9.20;6.60;;;9.30;34.20;;;;;;5034975;28;20472;-87
2021/03/21 02:40:52;;;;;;;10.37;6.50;;;9.30;34.20;;;;;;5035254;28;20441;-87
2021/03/21 02:43:24;;;;;;;12.07;6.63;;;8.90;35.50;;;;;;5034512;28;20481;-87
2021/03/21 02:45:57;;;;;;;17.67;7.53;;;8.50;34.10;;;;;;5034607;28;20548;-87
2021/03/21 02:48:29;;;;;;;11.50;7.27;;;8.40;33.50;;;;;;5034503;28;20496;-87
2021/03/21 02:51:04;;;;;;;11.53;7.37;;;8.70;36.60;;;;;;5035121;28;20582;-87
2021/03/21 02:53:40;;;;;;;12.00;6.97;;;9.40;38.70;;;;;;5034109;28;20415;-87
2021/03/21 02:56:12;;;;;;;11.80;6.73;;;8.90;33.50;;;;;;5034472;28;20968;-88
2021/03/21 02:58:42;;;;;;;12.43;7.17;;;9.00;34.20;;;;;;5034204;28;20554;-87
2021/03/21 03:01:15;;;;;;;10.93;7.20;;;9.20;37.20;;;;;;5037592;28;20449;-87
2021/03/21 03:03:46;;;;;;;9.47;6.97;;;9.90;36.00;;;;;;5038529;28;20492;-87
2021/03/21 03:06:18;;;;;;;25.90;9.50;;;9.80;36.20;;;;;;5038758;28;20514;-87
2021/03/21 03:08:48;;;;;;;10.40;7.17;;;10.20;34.60;;;;;;5039042;28;20485;-87
2021/03/21 03:11:17;;;;;;;17.63;7.43;;;10.20;34.20;;;;;;5038690;28;20474;-87
2021/03/21 03:13:48;;;;;;;9.93;6.17;;;10.60;36.00;;;;;;5038905;28;20431;-87
2021/03/21 03:16:22;;;;;;;10.30;6.33;;;10.60;34.40;;;;;;5038769;28;20421;-87
2021/03/21 03:18:58;;;;;;;11.43;6.90;;;11.10;34.30;;;;;;5038354;28;20974;-87
2021/03/21 03:21:32;;;;;;;8.13;5.67;;;10.90;29.90;;;;;;5038203;28;20812;-87
2021/03/21 03:24:05;;;;;;;12.17;6.33;;;11.00;33.90;;;;;;5038474;28;20457;-87
2021/03/21 03:26:41;;;;;;;8.93;6.00;;;10.60;34.10;;;;;;5037734;28;20504;-87
2021/03/21 03:29:19;;;;;;;12.30;5.93;;;11.00;31.10;;;;;;5037853;28;20473;-87
2021/03/21 03:31:50;;;;;;;10.23;6.97;;;11.10;31.60;;;;;;5037689;28;20496;-88
2021/03/21 03:34:17;;;;;;;9.60;6.57;;;10.40;31.50;;;;;;5038371;28;20409;-88
2021/03/21 03:36:44;;;;;;;7.73;5.83;;;10.70;34.50;;;;;;5048325;28;20474;-87
2021/03/21 03:39:11;;;;;;;8.93;5.93;;;11.00;32.00;;;;;;5057385;28;20496;-87
2021/03/21 03:41:40;;;;;;;6.97;5.23;;;11.10;32.20;;;;;;5057140;28;20426;-87
2021/03/21 03:44:23;;;;;;;8.67;6.13;;;10.70;33.90;;;;;;5055804;28;20520;-87
2021/03/21 03:46:54;;;;;;;8.87;6.00;;;10.80;31.10;;;;;;5037833;28;20464;-87
2021/03/21 03:49:35;;;;;;;10.83;5.93;;;10.80;33.00;;;;;;5038936;28;20480;-87
2021/03/21 03:52:30;;;;;;;8.63;5.97;;;10.40;33.60;;;;;;5038323;28;20465;-87
2021/03/21 03:55:03;;;;;;;9.07;6.33;;;10.60;29.10;;;;;;5037685;28;20468;-87
2021/03/21 03:57:34;;;;;;;9.57;6.43;;;9.90;32.20;;;;;;5037564;28;20830;-87
2021/03/21 04:00:12;;;;;;;9.87;6.67;;;9.90;35.20;;;;;;5036714;28;20539;-87
2021/03/21 04:02:55;;;;;;;11.10;6.17;;;10.30;34.30;;;;;;5037256;28;20439;-87
2021/03/21 04:05:25;;;;;;;13.20;6.70;;;10.40;30.50;;;;;;5036883;28;20523;-87
2021/03/21 04:08:00;;;;;;;12.67;6.53;;;10.20;28.60;;;;;;5037321;28;20536;-87
2021/03/21 04:10:36;;;;;;;10.90;6.53;;;9.80;28.50;;;;;;5037805;28;20903;-87
2021/03/21 04:13:10;;;;;;;8.63;5.77;;;9.60;33.50;;;;;;5036394;28;20453;-87
2021/03/21 04:15:40;;;;;;;8.47;5.67;;;9.90;35.00;;;;;;5036863;28;20580;-87
2021/03/21 04:18:13;;;;;;;12.67;6.50;;;10.20;34.00;;;;;;5040661;28;20467;-87
2021/03/21 04:20:44;;;;;;;9.33;5.77;;;10.60;33.80;;;;;;5041444;28;20556;-87
2021/03/21 04:23:16;;;;;;;11.60;6.90;;;10.80;34.00;;;;;;5036740;28;20445;-87
2021/03/21 04:25:47;;;;;;;9.87;6.27;;;10.90;32.00;;;;;;5036576;28;20977;-87
2021/03/21 04:28:20;;;;;;;8.97;6.17;;;10.10;29.20;;;;;;5036520;28;20513;-87
2021/03/21 04:30:50;;;;;;;8.77;6.00;;;9.70;33.90;;;;;;5036542;28;20529;-88
2021/03/21 04:33:23;;;;;;;9.30;6.40;;;9.80;34.80;;;;;;5036313;28;20476;-87
2021/03/21 04:35:53;;;;;;;11.00;6.87;;;10.50;35.60;;;;;;5036862;28;20461;-87
2021/03/21 04:38:25;;;;;;;9.30;6.13;;;10.50;29.60;;;;;;5037106;28;20449;-87
2021/03/21 04:40:52;;;;;;;10.37;6.17;;;10.10;34.60;;;;;;5050980;28;20507;-87
2021/03/21 04:43:23;;;;;;;17.00;6.67;;;10.20;31.10;;;;;;5036716;28;20507;-87
2021/03/21 04:45:52;;;;;;;10.07;6.50;;;9.70;30.90;;;;;;5036377;28;20492;-87
2021/03/21 04:48:22;;;;;;;10.60;6.30;;;9.00;35.60;;;;;;5036153;28;20520;-87
2021/03/21 04:50:55;;;;;;;21.10;7.10;;;8.60;36.00;;;;;;5035975;28;20433;-87
2021/03/21 04:53:29;;;;;;;9.70;5.97;;;8.20;34.90;;;;;;5036435;28;20519;-88
2021/03/21 04:55:58;;;;;;;14.07;6.53;;;8.40;36.30;;;;;;5036092;28;20447;-87
2021/03/21 04:58:28;;;;;;;9.00;6.17;;;8.80;36.30;;;;;;5053213;22;20489;-85
2021/03/21 05:01:02;;;;;;;5.70;4.73;;;8.80;34.30;;;;;;5039253;28;20704;-85
2021/03/21 05:03:35;;;;;;;10.40;6.63;;;8.60;37.40;;;;;;5039866;28;20437;-85
2021/03/21 05:06:07;;;;;;;8.97;6.40;;;8.60;33.10;;;;;;5041185;28;20465;-85
2021/03/21 05:08:39;;;;;;;10.27;5.80;;;8.60;35.20;;;;;;5040814;28;20503;-85
2021/03/21 05:11:08;;;;;;;7.27;5.60;;;8.30;35.00;;;;;;5052208;28;20448;-85
2021/03/21 05:13:41;;;;;;;10.80;6.70;;;8.30;34.30;;;;;;5054409;28;20448;-85
2021/03/21 05:16:15;;;;;;;7.90;5.73;;;7.60;33.20;;;;;;5047470;28;20872;-85
2021/03/21 05:18:49;;;;;;;9.43;5.90;;;8.20;35.60;;;;;;5041011;28;20485;-86
2021/03/21 05:21:20;;;;;;;12.87;6.10;;;8.20;33.30;;;;;;5040528;28;20514;-86
2021/03/21 05:23:54;;;;;;;7.17;5.03;;;8.20;38.30;;;;;;5039238;28;20453;-86
2021/03/21 05:26:25;;;;;;;9.97;6.20;;;8.60;35.20;;;;;;5038770;28;20564;-86
2021/03/21 05:29:05;;;;;;;14.53;6.13;;;8.90;32.10;;;;;;5039332;28;20866;-86
2021/03/21 05:31:32;;;;;;;11.43;6.73;;;9.00;34.20;;;;;;5039035;28;20492;-85
2021/03/21 05:34:01;;;;;;;8.93;5.60;;;9.10;31.60;;;;;;5039490;28;20977;-86
2021/03/21 05:36:47;;;;;;;9.13;6.23;;;8.80;32.90;;;;;;5040200;28;20528;-86
2021/03/21 05:39:29;;;;;;;8.17;6.07;;;8.40;30.80;;;;;;5039005;28;20465;-85
2021/03/21 05:42:29;;;;;;;10.57;6.20;;;8.00;36.20;;;;;;5037855;28;20865;-85
2021/03/21 05:45:19;;;;;;;9.20;6.13;;;8.40;35.10;;;;;;5037995;28;20484;-84
2021/03/21 05:48:21;;;;;;;11.20;6.10;;;8.20;37.00;;;;;;5005708;28;20500;-86
2021/03/21 05:51:17;;;;;;;7.70;5.47;;;8.70;37.10;;;;;;5038137;28;20441;-86
2021/03/21 05:54:19;;;;;;;10.30;5.40;;;9.00;36.30;;;;;;5037680;28;20497;-85
2021/03/21 05:57:08;;;;;;;13.00;6.17;;;8.60;34.20;;;;;;5016261;28;20487;-85
2021/03/21 05:59:51;;;;;;;14.27;7.23;;;8.00;32.80;;;;;;5018260;28;20470;-85
2021/03/21 06:02:56;;;;;;;9.93;6.80;;;8.30;32.00;;;;;;5023525;28;20487;-85
2021/03/21 06:06:00;;;;;;;9.27;6.07;;;8.40;29.70;;;;;;5033006;28;20476;-85
2021/03/21 06:08:35;;;;;;;11.87;6.30;;;8.60;32.60;;;;;;5038025;28;20472;-85
2021/03/21 06:11:48;;;;;;;10.93;8.07;;;7.90;40.10;;;;;;5038253;28;20468;-85
2021/03/21 06:14:48;;;;;;;11.80;7.40;;;7.70;34.40;;;;;;5038370;28;20490;-85
2021/03/21 06:17:50;;;;;;;9.57;5.50;;;7.50;32.90;;;;;;5036896;28;20456;-85
2021/03/21 06:20:31;;;;;;;13.33;6.73;;;7.00;36.50;;;;;;5037023;28;20495;-85
2021/03/21 06:23:13;;;;;;;12.13;6.40;;;6.90;34.20;;;;;;5038524;28;20484;-85
2021/03/21 06:25:54;;;;;;;12.70;6.10;;;6.30;33.30;;;;;;5038113;28;20461;-85
2021/03/21 06:28:55;;;;;;;13.20;7.50;;;6.40;34.00;;;;;;5038009;28;20803;-85
2021/03/21 06:32:07;;;;;;;12.20;7.00;;;6.30;35.80;;;;;;5042002;28;20510;-85
2021/03/21 06:34:41;;;;;;;16.23;8.47;;;6.30;36.30;;;;;;5037060;28;20515;-85
2021/03/21 06:37:28;;;;;;;10.70;6.70;;;6.00;34.50;;;;;;5037882;28;20458;-86
2021/03/21 06:40:14;;;;;;;10.80;6.73;;;6.70;34.50;;;;;;5038417;28;20505;-85
2021/03/21 06:43:10;;;;;;;10.03;6.30;;;6.60;34.90;;;;;;5039138;28;20485;-85
2021/03/21 06:46:09;;;;;;;7.33;5.50;;;6.70;35.50;;;;;;5038185;28;20513;-86
2021/03/21 06:48:59;;;;;;;8.87;5.97;;;6.90;33.80;;;;;;5009118;28;20469;-85
2021/03/21 06:51:42;;;;;;;7.93;5.20;;;7.70;39.30;;;;;;5025211;28;20457;-86
2021/03/21 06:54:38;;;;;;;10.43;6.73;;;8.20;35.50;;;;;;5041493;28;20468;-86
2021/03/21 06:57:41;;;;;;;11.53;6.07;;;8.10;32.30;;;;;;5040598;28;20449;-85
2021/03/21 07:00:57;;;;;;;6.53;4.77;;;7.90;31.90;;;;;;5042368;28;21079;-85
2021/03/21 07:03:57;;;;;;;13.80;8.43;;;7.40;35.10;;;;;;5041879;28;20424;-85
2021/03/21 07:07:09;;;;;;;14.53;6.87;;;7.40;34.50;;;;;;5047281;28;20489;-85
2021/03/21 07:10:15;;;;;;;9.07;4.40;;;7.50;34.30;;;;;;5037279;28;20487;-86
2021/03/21 07:13:22;;;;;;;14.87;6.73;;;7.60;35.30;;;;;;5056424;28;20429;-86
2021/03/21 07:16:00;;;;;;;7.10;5.00;;;8.30;35.70;;;;;;5049227;28;20444;-86
2021/03/21 07:19:12;;;;;;;12.77;5.33;;;8.50;32.30;;;;;;5057081;28;20445;-87
2021/03/21 07:22:19;;;;;;;9.37;6.10;;;8.90;35.50;;;;;;5057294;28;20432;-87
2021/03/21 07:25:18;;;;;;;11.10;6.03;;;8.80;31.50;;;;;;5051215;28;20523;-85
2021/03/21 07:28:08;;;;;;;10.57;6.03;;;7.60;33.60;;;;;;5031666;28;20840;-85
2021/03/21 07:30:46;;;;;;;7.80;6.00;;;7.90;33.30;;;;;;5037522;28;20583;-85
2021/03/21 07:33:33;;;;;;;8.20;5.60;;;7.70;30.30;;;;;;5037607;28;20529;-86
2021/03/21 07:36:26;;;;;;;15.17;6.23;;;8.00;33.80;;;;;;5038029;28;20441;-85
2021/03/21 07:39:17;;;;;;;10.57;6.43;;;7.80;35.50;;;;;;5037348;28;21048;-85
2021/03/21 07:41:55;;;;;;;12.17;6.63;;;7.80;33.40;;;;;;5037875;28;20863;-85
2021/03/21 07:44:36;;;;;;;9.23;6.77;;;7.50;31.60;;;;;;5038312;28;20462;-85
2021/03/21 07:47:27;;;;;;;8.70;5.63;;;7.20;33.70;;;;;;5040367;28;20894;-85
2021/03/21 07:50:06;;;;;;;7.27;4.90;;;7.20;33.60;;;;;;5041951;28;20469;-85
2021/03/21 07:52:53;;;;;;;11.73;6.87;;;7.40;36.40;;;;;;5041439;28;20900;-84
2021/03/21 07:55:27;;;;;;;7.30;5.30;;;7.60;35.40;;;;;;5041866;28;20422;-85
2021/03/21 07:58:02;;;;;;;12.67;7.30;;;8.00;36.40;;;;;;5042746;28;20457;-84
2021/03/21 08:00:28;;;;;;;13.67;8.80;;;7.70;32.20;;;;;;5041094;28;20899;-85
2021/03/21 08:03:19;;;;;;;9.33;6.43;;;8.30;32.40;;;;;;5042932;28;20484;-84
2021/03/21 08:05:46;;;;;;;10.53;7.00;;;8.50;35.10;;;;;;5041004;28;20854;-85
2021/03/21 08:08:16;;;;;;;7.83;4.93;;;8.10;31.70;;;;;;5041063;28;20445;-85
2021/03/21 08:10:45;;;;;;;12.40;6.43;;;8.50;37.80;;;;;;5041244;28;20441;-85
2021/03/21 08:13:17;;;;;;;7.00;5.33;;;8.60;37.30;;;;;;5041318;28;20460;-85
2021/03/21 08:15:43;;;;;;;10.87;6.90;;;8.60;34.10;;;;;;5043574;28;20468;-84
2021/03/21 08:18:15;;;;;;;12.63;7.20;;;8.50;30.80;;;;;;5056805;28;20445;-84
2021/03/21 08:20:49;;;;;;;11.00;6.70;;;8.50;30.10;;;;;;5057915;28;20425;-84
2021/03/21 08:23:22;;;;;;;10.80;6.50;;;8.40;31.20;;;;;;5050910;28;20414;-84
2021/03/21 08:25:50;;;;;;;9.50;6.20;;;8.50;32.20;;;;;;5056515;28;20464;-85
2021/03/21 08:28:19;;;;;;;12.77;6.90;;;9.00;33.20;;;;;;5047186;28;20504;-84
2021/03/21 08:30:50;;;;;;;9.50;6.50;;;8.60;31.10;;;;;;5043811;28;20433;-86
2021/03/21 08:33:28;;;;;;;9.60;6.77;;;8.60;31.70;;;;;;5045610;28;20453;-85
2021/03/21 08:36:15;;;;;;;7.13;5.50;;;8.30;30.20;;;;;;5042827;28;20444;-84
2021/03/21 08:38:51;;;;;;;8.47;5.80;;;7.60;34.40;;;;;;5041416;28;20484;-85
2021/03/21 08:41:19;;;;;;;9.50;5.50;;;7.40;33.70;;;;;;5040947;28;20425;-84
2021/03/21 08:43:45;;;;;;;31.77;6.17;;;7.30;34.80;;;;;;5043472;28;20449;-84
2021/03/21 08:46:18;;;;;;;6.00;4.93;;;7.40;33.50;;;;;;5042173;28;20489;-85
2021/03/21 08:48:45;;;;;;;8.40;5.57;;;7.70;40.60;;;;;;5041978;28;20473;-85
2021/03/21 08:51:29;;;;;;;8.93;5.93;;;7.90;36.60;;;;;;5041986;28;20523;-84
2021/03/21 08:53:58;;;;;;;6.77;4.80;;;8.00;32.10;;;;;;5041966;28;20433;-85
2021/03/21 08:56:29;;;;;;;9.17;5.60;;;7.60;34.40;;;;;;5022589;28;20436;-85
2021/03/21 08:59:26;;;;;;;10.87;4.97;;;7.30;32.10;;;;;;5039681;28;20540;-85
2021/03/21 09:01:58;;;;;;;7.97;5.20;;;7.50;37.80;;;;;;5041360;28;20453;-85
2021/03/21 09:04:27;;;;;;;8.20;5.43;;;8.30;33.80;;;;;;5046856;28;20469;-85
2021/03/21 09:06:53;;;;;;;9.53;5.03;;;8.00;30.40;;;;;;5045073;28;20527;-85
2021/03/21 09:09:25;;;;;;;10.23;5.97;;;8.00;36.90;;;;;;5043763;28;20477;-85
2021/03/21 09:11:55;;;;;;;9.87;5.20;;;8.00;32.50;;;;;;5047764;28;20891;-84
2021/03/21 09:14:25;;;;;;;8.90;5.47;;;8.40;34.00;;;;;;5046741;28;20479;-85
2021/03/21 09:16:55;;;;;;;6.77;5.33;;;7.90;32.10;;;;;;5050121;28;20432;-85
2021/03/21 09:19:25;;;;;;;17.73;5.40;;;7.60;34.40;;;;;;5045591;28;20543;-85
2021/03/21 09:21:53;;;;;;;7.47;5.10;;;7.40;35.20;;;;;;5045151;28;20949;-85
2021/03/21 09:24:24;;;;;;;13.10;6.93;;;7.60;33.10;;;;;;5047168;28;20440;-85
2021/03/21 09:26:52;;;;;;;8.13;6.07;;;8.20;33.60;;;;;;5044782;28;20472;-85
2021/03/21 09:29:28;;;;;;;12.73;5.73;;;8.20;31.50;;;;;;5048330;28;20457;-85
2021/03/21 09:31:59;;;;;;;8.67;6.03;;;8.40;31.20;;;;;;5043326;28;20559;-85
2021/03/21 09:34:37;;;;;;;12.70;7.63;;;8.10;32.60;;;;;;5043884;28;20824;-85
2021/03/21 09:37:07;;;;;;;8.90;5.50;;;8.10;30.40;;;;;;5040447;28;20449;-85
2021/03/21 09:39:36;;;;;;;8.17;5.20;;;8.90;34.00;;;;;;5039659;28;20913;-85
2021/03/21 09:42:09;;;;;;;7.40;4.57;;;8.90;29.70;;;;;;5043817;28;20891;-85
2021/03/21 09:44:40;;;;;;;11.73;5.10;;;8.70;32.30;;;;;;5042390;28;20461;-85
2021/03/21 09:47:23;;;;;;;9.07;5.37;;;7.70;32.00;;;;;;5051903;28;20469;-84
2021/03/21 09:49:56;;;;;;;7.47;5.40;;;7.20;34.00;;;;;;5053372;28;20457;-85
2021/03/21 09:52:40;;;;;;;7.80;5.73;;;7.30;34.10;;;;;;5039832;28;20913;-85
2021/03/21 09:55:34;;;;;;;12.57;5.93;;;7.70;31.70;;;;;;5040274;28;20444;-84
2021/03/21 09:58:26;;;;;;;13.43;6.60;;;7.50;31.90;;;;;;5036568;28;20521;-85
2021/03/21 10:00:56;;;;;;;8.17;5.57;;;7.90;31.70;;;;;;5039602;28;20471;-84
2021/03/21 10:03:31;;;;;;;6.63;5.10;;;7.90;31.40;;;;;;5041646;28;20449;-84
2021/03/21 10:06:06;;;;;;;10.47;5.90;;;8.30;34.00;;;;;;5040996;28;20504;-85
2021/03/21 10:08:48;;;;;;;8.53;5.70;;;8.30;31.40;;;;;;5039418;28;20433;-84
2021/03/21 10:11:22;;;;;;;8.93;5.80;;;8.70;31.80;;;;;;5041736;28;20527;-84
2021/03/21 10:13:49;;;;;;;7.07;5.03;;;8.90;30.30;;;;;;5044423;28;20926;-84
2021/03/21 10:16:32;;;;;;;11.70;5.60;;;8.80;35.40;;;;;;5043748;28;20913;-85
2021/03/21 10:19:00;;;;;;;10.60;5.90;;;8.30;33.40;;;;;;5041843;28;20461;-85
2021/03/21 10:21:32;;;;;;;8.60;5.73;;;8.10;31.60;;;;;;5043626;28;20493;-85
2021/03/21 10:24:30;;;;;;;9.57;5.87;;;8.30;30.90;;;;;;5044396;28;20442;-85
2021/03/21 10:27:41;;;;;;;7.60;5.57;;;8.10;32.20;;;;;;5042825;28;20469;-85
2021/03/21 10:30:23;;;;;;;10.30;5.97;;;8.40;32.20;;;;;;5044961;28;20478;-85
2021/03/21 10:32:51;;;;;;;8.13;5.23;;;8.40;30.70;;;;;;5043739;28;20807;-85
2021/03/21 10:35:53;;;;;;;8.40;6.50;;;8.60;30.30;;;;;;5044846;28;20453;-85
2021/03/21 10:38:47;;;;;;;10.70;6.80;;;8.20;30.10;;;;;;5039798;28;20777;-85
2021/03/21 10:41:52;;;;;;;10.70;5.70;;;8.50;33.00;;;;;;5028641;28;20433;-84
2021/03/21 10:44:19;;;;;;;6.63;4.83;;;8.80;34.70;;;;;;5028895;28;20437;-85
2021/03/21 10:46:51;;;;;;;9.80;6.27;;;9.30;33.90;;;;;;5040869;28;20499;-85
2021/03/21 10:49:47;;;;;;;8.10;6.20;;;9.10;33.30;;;;;;5043273;28;20470;-85
2021/03/21 10:52:30;;;;;;;7.60;6.07;;;9.70;33.00;;;;;;5043267;28;20466;-85
2021/03/21 10:55:37;;;;;;;9.13;5.87;;;9.40;31.40;;;;;;5044243;28;20445;-85
2021/03/21 10:58:29;;;;;;;11.90;5.07;;;9.20;31.60;;;;;;5043672;28;20449;-85
2021/03/21 11:01:22;;;;;;;8.57;5.97;;;9.30;32.00;;;;;;5086097;22;20577;-84
2021/03/21 11:03:59;;;;;;;7.80;4.93;;;9.30;29.90;;;;;;5046661;28;20458;-84
2021/03/21 11:06:27;;;;;;;6.63;5.40;;;9.60;29.60;;;;;;5073048;28;20471;-84
2021/03/21 11:08:54;;;;;;;8.77;5.83;;;9.50;30.60;;;;;;5073023;28;20937;-84
2021/03/21 11:11:24;;;;;;;9.63;5.00;;;9.70;30.90;;;;;;5072715;28;20466;-84
2021/03/21 11:13:51;;;;;;;9.73;5.13;;;9.90;29.90;;;;;;5074400;28;20508;-83
2021/03/21 11:16:20;;;;;;;6.43;4.57;;;9.90;31.00;;;;;;5081234;28;20463;-83
2021/03/21 11:18:49;;;;;;;10.40;5.33;;;10.30;31.70;;;;;;5082858;28;20941;-84
2021/03/21 11:21:23;;;;;;;11.33;5.90;;;10.50;28.20;;;;;;5084382;28;20462;-83
2021/03/21 11:23:54;;;;;;;8.93;5.00;;;9.90;31.50;;;;;;5079557;28;20434;-84
2021/03/21 11:26:23;;;;;;;9.57;6.20;;;9.60;29.10;;;;;;5076524;28;20482;-84
2021/03/21 11:28:49;;;;;;;11.17;5.30;;;9.40;30.00;;;;;;5084155;28;20444;-84
2021/03/21 11:31:29;;;;;;;9.57;4.90;;;9.50;31.60;;;;;;5083628;28;20510;-85
2021/03/21 11:33:55;;;;;;;8.83;5.23;;;9.80;33.40;;;;;;5078427;28;20464;-85
2021/03/21 11:36:26;;;;;;;10.33;5.50;;;10.30;28.10;;;;;;5076992;28;20543;-85
2021/03/21 11:38:54;;;;;;;6.93;5.07;;;10.20;28.80;;;;;;5079690;28;20560;-83
2021/03/21 11:41:35;;;;;;;7.30;4.97;;;10.70;30.00;;;;;;5076196;28;21042;-84
2021/03/21 11:44:20;;;;;;;22.43;6.30;;;10.90;28.10;;;;;;5077278;28;20991;-84
2021/03/21 11:46:49;;;;;;;9.80;4.90;;;10.90;26.90;;;;;;5076736;28;20484;-83
2021/03/21 11:49:16;;;;;;;7.67;5.20;;;11.10;30.80;;;;;;5076590;28;20534;-85
2021/03/21 11:51:45;;;;;;;7.73;4.50;;;11.10;27.70;;;;;;5076791;28;20495;-84
2021/03/21 11:54:18;;;;;;;7.87;5.10;;;11.50;29.50;;;;;;5076097;28;20447;-85
2021/03/21 11:56:54;;;;;;;15.37;6.70;;;11.40;26.90;;;;;;5076898;28;20523;-84
2021/03/21 11:59:26;;;;;;;8.87;6.10;;;11.20;27.10;;;;;;5076382;28;20506;-84
2021/03/21 12:01:56;;;;;;;9.60;5.93;;;11.20;27.20;;;;;;5076266;28;20930;-84
2021/03/21 12:04:25;;;;;;;8.00;5.70;;;10.90;27.00;;;;;;5076095;28;20482;-84
2021/03/21 12:06:55;;;;;;;11.13;5.97;;;11.30;27.20;;;;;;5076070;28;20948;-85
2021/03/21 12:09:26;;;;;;;10.43;6.67;;;11.70;27.10;;;;;;5076210;28;20412;-85
2021/03/21 12:11:53;;;;;;;10.60;6.40;;;12.00;26.10;;;;;;5076081;28;20486;-85
2021/03/21 12:14:46;;;;;;;7.03;5.53;;;11.90;26.90;;;;;;5076365;28;20457;-85
2021/03/21 12:17:35;;;;;;;6.67;5.00;;;12.00;26.70;;;;;;5080150;28;20431;-83
2021/03/21 12:20:31;;;;;;;8.47;5.20;;;11.70;27.80;;;;;;5077568;28;20544;-85
2021/03/21 12:22:59;;;;;;;8.97;5.90;;;11.80;26.50;;;;;;5080297;28;20427;-85
2021/03/21 12:25:28;;;;;;;12.93;5.50;;;11.40;26.80;;;;;;5083526;28;20446;-85
2021/03/21 12:28:10;;;;;;;9.90;6.80;;;11.70;28.60;;;;;;5097095;28;20490;-85
2021/03/21 12:30:40;;;;;;;12.03;5.90;;;11.70;27.70;;;;;;5098233;28;20440;-84
2021/03/21 12:33:29;;;;;;;10.57;6.60;;;11.40;27.70;;;;;;5097941;28;20432;-86
2021/03/21 12:35:57;;;;;;;11.27;6.00;;;11.40;27.90;;;;;;5098604;28;20452;-84
2021/03/21 12:38:32;;;;;;;11.10;6.20;;;11.50;29.20;;;;;;5097238;28;20461;-84
2021/03/21 12:41:19;;;;;;;8.13;6.30;;;11.40;30.80;;;;;;5092620;28;20466;-84
2021/03/21 12:43:45;;;;;;;10.97;5.90;;;11.60;27.90;;;;;;5082029;28;20447;-84
2021/03/21 12:46:15;;;;;;;6.83;5.07;;;11.50;28.30;;;;;;5092959;28;20479;-84
2021/03/21 12:48:47;;;;;;;10.77;6.17;;;11.00;30.00;;;;;;5095737;28;20434;-84
2021/03/21 12:51:29;;;;;;;7.77;4.80;;;11.00;29.40;;;;;;5092089;28;20462;-85
2021/03/21 12:53:57;;;;;;;8.90;6.43;;;11.30;30.90;;;;;;5094297;28;20425;-85
2021/03/21 12:56:24;;;;;;;9.70;6.57;;;11.40;28.90;;;;;;5092853;28;20453;-84
2021/03/21 12:58:50;;;;;;;8.67;6.60;;;11.20;29.50;;;;;;5092407;28;20438;-84
2021/03/21 13:01:17;;;;;;;7.20;6.00;;;11.30;30.00;;;;;;5086712;28;20475;-84
2021/03/21 13:03:44;;;;;;;17.07;8.37;;;11.50;31.30;;;;;;5082949;28;20542;-85
2021/03/21 13:06:10;;;;;;;12.93;9.13;;;11.10;29.40;;;;;;5081419;28;20621;-84
2021/03/21 13:08:37;;;;;;;11.80;7.90;;;10.90;30.30;;;;;;5081250;28;20479;-85
2021/03/21 13:11:06;;;;;;;8.77;6.00;;;11.20;30.10;;;;;;5082031;28;20445;-84
2021/03/21 13:13:34;;;;;;;14.60;8.80;;;11.60;31.80;;;;;;5089754;28;20444;-84
2021/03/21 13:16:01;;;;;;;15.23;8.90;;;11.80;29.60;;;;;;5092374;28;20456;-84
2021/03/21 13:18:28;;;;;;;10.30;7.53;;;11.80;29.30;;;;;;5089977;28;20951;-83
2021/03/21 13:20:58;;;;;;;12.27;7.93;;;11.80;31.60;;;;;;5087931;28;20478;-84
2021/03/21 13:23:25;;;;;;;13.33;8.90;;;11.60;30.60;;;;;;5090088;28;20431;-85
2021/03/21 13:25:52;;;;;;;12.17;7.67;;;11.60;31.20;;;;;;5083306;28;20950;-85
2021/03/21 13:28:19;;;;;;;8.43;6.50;;;11.80;30.50;;;;;;5081329;28;20451;-85
2021/03/21 13:30:48;;;;;;;9.50;7.10;;;11.80;29.90;;;;;;5078539;28;20467;-85
2021/03/21 13:33:19;;;;;;;10.97;7.70;;;11.30;31.20;;;;;;5078792;28;20447;-84